sensor_id;sensor_type;location;lat;lon;timestamp;P1;durP1;ratioP1;P2;durP2;ratioP2
58697;SDS011;44475;53.206;-6.106;2023-03-16T00:01:42;6.68;;;2.60;;
58697;SDS011;44475;53.206;-6.106;2023-03-16T00:04:09;9.98;;;2.92;;
58697;SDS011;44475;53.206;-6.106;2023-03-16T00:06:35;5.43;;;2.50;;
58697;SDS011;44475;53.206;-6.106;2023-03-16T00:09:02;6.93;;;2.45;;
58697;SDS011;44475;53.206;-6.106;2023-03-16T00:11:29;6.10;;;2.20;;
58697;SDS011;44475;53.206;-6.106;2023-03-16T00:13:55;6.43;;;2.40;;
58697;SDS011;44475;53.206;-6.106;2023-03-16T00:16:23;4.78;;;2.00;;
58697;SDS011;44475;53.206;-6.106;2023-03-16T00:18:49;4.07;;;2.10;;
58697;SDS011;44475;53.206;-6.106;2023-03-16T00:21:16;6.55;;;2.30;;
58697;SDS011;44475;53.206;-6.106;2023-03-16T00:23:42;6.97;;;2.47;;
58697;SDS011;44475;53.206;-6.106;2023-03-16T00:26:08;5.68;;;2.38;;
58697;SDS011;44475;53.206;-6.106;2023-03-16T00:28:37;5.47;;;2.20;;
58697;SDS011;44475;53.206;-6.106;2023-03-16T00:31:04;5.45;;;2.03;;
58697;SDS011;44475;53.206;-6.106;2023-03-16T00:33:33;5.60;;;2.05;;
58697;SDS011;44475;53.206;-6.106;2023-03-16T00:36:00;5.47;;;2.05;;
58697;SDS011;44475;53.206;-6.106;2023-03-16T00:38:28;5.28;;;2.25;;
58697;SDS011;44475;53.206;-6.106;2023-03-16T00:40:57;4.28;;;2.03;;
58697;SDS011;44475;53.206;-6.106;2023-03-16T00:43:23;5.03;;;1.80;;
58697;SDS011;44475;53.206;-6.106;2023-03-16T00:45:56;7.93;;;1.98;;
58697;SDS011;44475;53.206;-6.106;2023-03-16T00:48:26;3.53;;;1.85;;
58697;SDS011;44475;53.206;-6.106;2023-03-16T00:50:52;5.28;;;1.88;;
58697;SDS011;44475;53.206;-6.106;2023-03-16T00:53:19;3.97;;;1.80;;
58697;SDS011;44475;53.206;-6.106;2023-03-16T00:55:46;4.05;;;1.88;;
58697;SDS011;44475;53.206;-6.106;2023-03-16T00:58:12;3.78;;;1.90;;
58697;SDS011;44475;53.206;-6.106;2023-03-16T01:00:39;3.28;;;1.80;;
58697;SDS011;44475;53.206;-6.106;2023-03-16T01:03:05;3.22;;;1.70;;
58697;SDS011;44475;53.206;-6.106;2023-03-16T01:05:38;3.97;;;1.70;;
58697;SDS011;44475;53.206;-6.106;2023-03-16T01:08:06;3.78;;;1.75;;
58697;SDS011;44475;53.206;-6.106;2023-03-16T01:10:33;3.25;;;1.77;;
58697;SDS011;44475;53.206;-6.106;2023-03-16T01:13:00;4.00;;;1.70;;
58697;SDS011;44475;53.206;-6.106;2023-03-16T01:15:30;3.80;;;1.70;;
58697;SDS011;44475;53.206;-6.106;2023-03-16T01:17:59;2.92;;;1.60;;
58697;SDS011;44475;53.206;-6.106;2023-03-16T01:20:26;2.67;;;1.67;;
58697;SDS011;44475;53.206;-6.106;2023-03-16T01:22:52;3.72;;;1.90;;
58697;SDS011;44475;53.206;-6.106;2023-03-16T01:25:18;4.03;;;1.60;;
58697;SDS011;44475;53.206;-6.106;2023-03-16T01:27:45;2.75;;;1.60;;
58697;SDS011;44475;53.206;-6.106;2023-03-16T01:30:12;2.65;;;1.60;;
58697;SDS011;44475;53.206;-6.106;2023-03-16T01:32:38;4.72;;;1.73;;
58697;SDS011;44475;53.206;-6.106;2023-03-16T01:35:06;2.28;;;1.52;;
58697;SDS011;44475;53.206;-6.106;2023-03-16T01:37:34;3.10;;;1.50;;
58697;SDS011;44475;53.206;-6.106;2023-03-16T01:40:20;3.88;;;1.40;;
58697;SDS011;44475;53.206;-6.106;2023-03-16T01:42:48;2.97;;;1.67;;
58697;SDS011;44475;53.206;-6.106;2023-03-16T01:48:24;2.35;;;1.50;;
58697;SDS011;44475;53.206;-6.106;2023-03-16T01:50:55;4.65;;;1.60;;
58697;SDS011;44475;53.206;-6.106;2023-03-16T01:53:25;1.90;;;1.40;;
58697;SDS011;44475;53.206;-6.106;2023-03-16T01:55:51;2.47;;;1.40;;
58697;SDS011;44475;53.206;-6.106;2023-03-16T01:58:19;2.72;;;1.42;;
58697;SDS011;44475;53.206;-6.106;2023-03-16T02:00:46;1.73;;;1.23;;
58697;SDS011;44475;53.206;-6.106;2023-03-16T02:03:18;2.25;;;1.30;;
58697;SDS011;44475;53.206;-6.106;2023-03-16T02:08:46;3.00;;;1.45;;
58697;SDS011;44475;53.206;-6.106;2023-03-16T02:11:13;2.78;;;1.35;;
58697;SDS011;44475;53.206;-6.106;2023-03-16T02:13:53;2.83;;;1.35;;
58697;SDS011;44475;53.206;-6.106;2023-03-16T02:16:22;1.80;;;1.20;;
58697;SDS011;44475;53.206;-6.106;2023-03-16T02:18:49;2.13;;;1.20;;
58697;SDS011;44475;53.206;-6.106;2023-03-16T02:23:53;1.58;;;1.20;;
58697;SDS011;44475;53.206;-6.106;2023-03-16T02:31:46;2.13;;;1.30;;
58697;SDS011;44475;53.206;-6.106;2023-03-16T02:34:15;1.63;;;1.20;;
58697;SDS011;44475;53.206;-6.106;2023-03-16T02:36:43;2.65;;;1.40;;
58697;SDS011;44475;53.206;-6.106;2023-03-16T02:39:12;2.05;;;1.20;;
58697;SDS011;44475;53.206;-6.106;2023-03-16T02:41:44;1.92;;;1.08;;
58697;SDS011;44475;53.206;-6.106;2023-03-16T02:44:12;1.33;;;1.23;;
58697;SDS011;44475;53.206;-6.106;2023-03-16T02:46:42;1.75;;;1.30;;
58697;SDS011;44475;53.206;-6.106;2023-03-16T02:49:18;3.13;;;1.27;;
58697;SDS011;44475;53.206;-6.106;2023-03-16T02:51:47;1.25;;;1.08;;
58697;SDS011;44475;53.206;-6.106;2023-03-16T02:54:13;2.22;;;1.20;;
58697;SDS011;44475;53.206;-6.106;2023-03-16T02:56:40;1.20;;;1.10;;
58697;SDS011;44475;53.206;-6.106;2023-03-16T02:59:07;1.48;;;1.10;;
58697;SDS011;44475;53.206;-6.106;2023-03-16T03:01:34;3.42;;;1.42;;
58697;SDS011;44475;53.206;-6.106;2023-03-16T03:04:01;1.75;;;1.10;;
58697;SDS011;44475;53.206;-6.106;2023-03-16T03:06:30;1.35;;;1.10;;
58697;SDS011;44475;53.206;-6.106;2023-03-16T03:09:00;1.75;;;1.25;;
58697;SDS011;44475;53.206;-6.106;2023-03-16T03:11:28;1.27;;;0.95;;
58697;SDS011;44475;53.206;-6.106;2023-03-16T03:13:55;1.27;;;0.93;;
58697;SDS011;44475;53.206;-6.106;2023-03-16T03:16:25;0.85;;;0.82;;
58697;SDS011;44475;53.206;-6.106;2023-03-16T03:18:53;1.20;;;1.10;;
58697;SDS011;44475;53.206;-6.106;2023-03-16T03:21:20;1.52;;;1.08;;
58697;SDS011;44475;53.206;-6.106;2023-03-16T03:23:48;3.33;;;1.05;;
58697;SDS011;44475;53.206;-6.106;2023-03-16T03:26:14;3.83;;;1.20;;
58697;SDS011;44475;53.206;-6.106;2023-03-16T03:28:43;1.70;;;1.23;;
58697;SDS011;44475;53.206;-6.106;2023-03-16T03:31:12;2.13;;;1.23;;
58697;SDS011;44475;53.206;-6.106;2023-03-16T03:33:39;2.92;;;1.17;;
58697;SDS011;44475;53.206;-6.106;2023-03-16T03:36:06;2.50;;;1.00;;
58697;SDS011;44475;53.206;-6.106;2023-03-16T03:38:35;1.55;;;1.10;;
58697;SDS011;44475;53.206;-6.106;2023-03-16T03:41:03;2.45;;;1.05;;
58697;SDS011;44475;53.206;-6.106;2023-03-16T03:43:36;1.60;;;0.93;;
58697;SDS011;44475;53.206;-6.106;2023-03-16T03:46:03;2.25;;;1.15;;
58697;SDS011;44475;53.206;-6.106;2023-03-16T03:48:32;1.83;;;1.02;;
58697;SDS011;44475;53.206;-6.106;2023-03-16T03:50:59;1.88;;;1.00;;
58697;SDS011;44475;53.206;-6.106;2023-03-16T03:53:41;2.00;;;0.93;;
58697;SDS011;44475;53.206;-6.106;2023-03-16T03:56:36;1.85;;;0.95;;
58697;SDS011;44475;53.206;-6.106;2023-03-16T03:59:07;1.35;;;1.05;;
58697;SDS011;44475;53.206;-6.106;2023-03-16T04:01:52;2.20;;;1.00;;
58697;SDS011;44475;53.206;-6.106;2023-03-16T04:04:21;2.15;;;1.15;;
58697;SDS011;44475;53.206;-6.106;2023-03-16T04:06:50;1.05;;;0.93;;
58697;SDS011;44475;53.206;-6.106;2023-03-16T04:09:17;3.30;;;1.20;;
58697;SDS011;44475;53.206;-6.106;2023-03-16T04:11:44;1.13;;;0.85;;
58697;SDS011;44475;53.206;-6.106;2023-03-16T04:14:10;0.90;;;0.82;;
58697;SDS011;44475;53.206;-6.106;2023-03-16T04:16:38;1.33;;;1.00;;
58697;SDS011;44475;53.206;-6.106;2023-03-16T04:19:05;1.77;;;1.05;;
58697;SDS011;44475;53.206;-6.106;2023-03-16T04:21:31;1.73;;;1.00;;
58697;SDS011;44475;53.206;-6.106;2023-03-16T04:23:58;1.00;;;0.90;;
58697;SDS011;44475;53.206;-6.106;2023-03-16T04:26:32;1.90;;;1.05;;
58697;SDS011;44475;53.206;-6.106;2023-03-16T04:29:02;1.80;;;0.95;;
58697;SDS011;44475;53.206;-6.106;2023-03-16T04:31:30;0.90;;;0.90;;
58697;SDS011;44475;53.206;-6.106;2023-03-16T04:33:56;1.88;;;1.20;;
58697;SDS011;44475;53.206;-6.106;2023-03-16T04:36:23;2.08;;;1.05;;
58697;SDS011;44475;53.206;-6.106;2023-03-16T04:38:51;1.58;;;0.90;;
58697;SDS011;44475;53.206;-6.106;2023-03-16T04:41:17;1.77;;;1.00;;
58697;SDS011;44475;53.206;-6.106;2023-03-16T04:43:53;1.05;;;0.80;;
58697;SDS011;44475;53.206;-6.106;2023-03-16T04:46:22;2.92;;;1.10;;
58697;SDS011;44475;53.206;-6.106;2023-03-16T04:48:50;1.10;;;0.80;;
58697;SDS011;44475;53.206;-6.106;2023-03-16T04:51:18;1.30;;;0.85;;
58697;SDS011;44475;53.206;-6.106;2023-03-16T04:54:07;1.38;;;0.98;;
58697;SDS011;44475;53.206;-6.106;2023-03-16T04:56:37;1.23;;;0.93;;
58697;SDS011;44475;53.206;-6.106;2023-03-16T04:59:11;0.73;;;0.73;;
58697;SDS011;44475;53.206;-6.106;2023-03-16T05:01:46;0.93;;;0.77;;
58697;SDS011;44475;53.206;-6.106;2023-03-16T05:04:14;0.68;;;0.68;;
58697;SDS011;44475;53.206;-6.106;2023-03-16T05:06:41;1.75;;;1.00;;
58697;SDS011;44475;53.206;-6.106;2023-03-16T05:09:07;1.38;;;1.00;;
58697;SDS011;44475;53.206;-6.106;2023-03-16T05:11:36;1.48;;;0.88;;
58697;SDS011;44475;53.206;-6.106;2023-03-16T05:14:06;1.40;;;1.10;;
58697;SDS011;44475;53.206;-6.106;2023-03-16T05:16:41;1.20;;;1.08;;
58697;SDS011;44475;53.206;-6.106;2023-03-16T05:19:08;1.58;;;0.90;;
58697;SDS011;44475;53.206;-6.106;2023-03-16T05:21:34;0.85;;;0.85;;
58697;SDS011;44475;53.206;-6.106;2023-03-16T05:24:06;1.20;;;0.90;;
58697;SDS011;44475;53.206;-6.106;2023-03-16T05:29:21;0.85;;;0.80;;
58697;SDS011;44475;53.206;-6.106;2023-03-16T05:31:48;0.80;;;0.80;;
58697;SDS011;44475;53.206;-6.106;2023-03-16T05:34:18;2.17;;;1.00;;
58697;SDS011;44475;53.206;-6.106;2023-03-16T05:36:45;1.73;;;0.90;;
58697;SDS011;44475;53.206;-6.106;2023-03-16T05:39:14;3.30;;;0.90;;
58697;SDS011;44475;53.206;-6.106;2023-03-16T05:41:45;1.45;;;0.80;;
58697;SDS011;44475;53.206;-6.106;2023-03-16T05:44:20;1.40;;;0.98;;
58697;SDS011;44475;53.206;-6.106;2023-03-16T05:47:11;1.73;;;0.90;;
58697;SDS011;44475;53.206;-6.106;2023-03-16T05:49:42;1.05;;;0.77;;
58697;SDS011;44475;53.206;-6.106;2023-03-16T05:52:22;0.80;;;0.80;;
58697;SDS011;44475;53.206;-6.106;2023-03-16T05:54:49;1.70;;;0.90;;
58697;SDS011;44475;53.206;-6.106;2023-03-16T05:57:16;1.60;;;0.90;;
58697;SDS011;44475;53.206;-6.106;2023-03-16T05:59:44;1.52;;;0.90;;
58697;SDS011;44475;53.206;-6.106;2023-03-16T06:02:13;1.33;;;0.85;;
58697;SDS011;44475;53.206;-6.106;2023-03-16T06:04:39;1.30;;;0.68;;
58697;SDS011;44475;53.206;-6.106;2023-03-16T06:07:06;0.80;;;0.80;;
58697;SDS011;44475;53.206;-6.106;2023-03-16T06:09:33;1.80;;;1.00;;
58697;SDS011;44475;53.206;-6.106;2023-03-16T06:12:02;0.70;;;0.70;;
58697;SDS011;44475;53.206;-6.106;2023-03-16T06:14:29;1.08;;;0.90;;
58697;SDS011;44475;53.206;-6.106;2023-03-16T06:16:55;1.00;;;0.90;;
58697;SDS011;44475;53.206;-6.106;2023-03-16T06:19:22;1.42;;;0.90;;
58697;SDS011;44475;53.206;-6.106;2023-03-16T06:21:53;0.60;;;0.60;;
58697;SDS011;44475;53.206;-6.106;2023-03-16T06:24:20;1.38;;;0.90;;
58697;SDS011;44475;53.206;-6.106;2023-03-16T06:26:46;1.48;;;0.90;;
58697;SDS011;44475;53.206;-6.106;2023-03-16T06:29:13;0.80;;;0.80;;
58697;SDS011;44475;53.206;-6.106;2023-03-16T06:31:40;0.80;;;0.80;;
58697;SDS011;44475;53.206;-6.106;2023-03-16T06:34:06;1.23;;;0.90;;
58697;SDS011;44475;53.206;-6.106;2023-03-16T06:36:33;0.70;;;0.70;;
58697;SDS011;44475;53.206;-6.106;2023-03-16T06:39:01;0.80;;;0.75;;
58697;SDS011;44475;53.206;-6.106;2023-03-16T06:41:32;1.58;;;0.70;;
58697;SDS011;44475;53.206;-6.106;2023-03-16T06:44:00;1.00;;;0.80;;
58697;SDS011;44475;53.206;-6.106;2023-03-16T06:46:27;0.63;;;0.60;;
58697;SDS011;44475;53.206;-6.106;2023-03-16T06:48:55;0.95;;;0.85;;
58697;SDS011;44475;53.206;-6.106;2023-03-16T06:51:21;1.35;;;0.90;;
58697;SDS011;44475;53.206;-6.106;2023-03-16T06:53:49;0.80;;;0.80;;
58697;SDS011;44475;53.206;-6.106;2023-03-16T06:56:15;3.00;;;0.80;;
58697;SDS011;44475;53.206;-6.106;2023-03-16T06:58:44;1.10;;;0.70;;
58697;SDS011;44475;53.206;-6.106;2023-03-16T07:01:10;0.50;;;0.50;;
58697;SDS011;44475;53.206;-6.106;2023-03-16T07:03:37;1.35;;;0.90;;
58697;SDS011;44475;53.206;-6.106;2023-03-16T07:06:12;1.02;;;0.73;;
58697;SDS011;44475;53.206;-6.106;2023-03-16T07:08:40;0.85;;;0.80;;
58697;SDS011;44475;53.206;-6.106;2023-03-16T07:11:07;0.80;;;0.80;;
58697;SDS011;44475;53.206;-6.106;2023-03-16T07:13:34;0.95;;;0.80;;
58697;SDS011;44475;53.206;-6.106;2023-03-16T07:16:02;0.98;;;0.80;;
58697;SDS011;44475;53.206;-6.106;2023-03-16T07:18:29;0.80;;;0.80;;
58697;SDS011;44475;53.206;-6.106;2023-03-16T07:20:56;0.75;;;0.75;;
58697;SDS011;44475;53.206;-6.106;2023-03-16T07:23:24;1.55;;;0.80;;
58697;SDS011;44475;53.206;-6.106;2023-03-16T07:25:56;1.05;;;0.80;;
58697;SDS011;44475;53.206;-6.106;2023-03-16T07:28:22;2.55;;;0.80;;
58697;SDS011;44475;53.206;-6.106;2023-03-16T07:30:49;1.10;;;0.70;;
58697;SDS011;44475;53.206;-6.106;2023-03-16T07:33:16;0.75;;;0.75;;
58697;SDS011;44475;53.206;-6.106;2023-03-16T07:35:46;0.60;;;0.60;;
58697;SDS011;44475;53.206;-6.106;2023-03-16T07:38:12;0.70;;;0.70;;
58697;SDS011;44475;53.206;-6.106;2023-03-16T07:40:39;1.23;;;0.90;;
58697;SDS011;44475;53.206;-6.106;2023-03-16T07:43:12;1.33;;;0.77;;
58697;SDS011;44475;53.206;-6.106;2023-03-16T07:45:47;0.88;;;0.80;;
58697;SDS011;44475;53.206;-6.106;2023-03-16T07:48:16;1.50;;;0.65;;
58697;SDS011;44475;53.206;-6.106;2023-03-16T07:50:52;0.57;;;0.57;;
58697;SDS011;44475;53.206;-6.106;2023-03-16T07:53:19;0.73;;;0.60;;
58697;SDS011;44475;53.206;-6.106;2023-03-16T07:55:50;1.08;;;0.70;;
58697;SDS011;44475;53.206;-6.106;2023-03-16T07:58:17;0.80;;;0.80;;
58697;SDS011;44475;53.206;-6.106;2023-03-16T08:00:44;1.15;;;0.80;;
58697;SDS011;44475;53.206;-6.106;2023-03-16T08:03:10;0.70;;;0.70;;
58697;SDS011;44475;53.206;-6.106;2023-03-16T08:05:41;0.50;;;0.50;;
58697;SDS011;44475;53.206;-6.106;2023-03-16T08:08:12;1.30;;;0.82;;
58697;SDS011;44475;53.206;-6.106;2023-03-16T08:10:40;0.60;;;0.60;;
58697;SDS011;44475;53.206;-6.106;2023-03-16T08:15:44;0.60;;;0.60;;
58697;SDS011;44475;53.206;-6.106;2023-03-16T08:18:26;0.70;;;0.70;;
58697;SDS011;44475;53.206;-6.106;2023-03-16T08:20:56;1.85;;;0.68;;
58697;SDS011;44475;53.206;-6.106;2023-03-16T08:23:24;0.98;;;0.60;;
58697;SDS011;44475;53.206;-6.106;2023-03-16T08:25:54;1.35;;;0.82;;
58697;SDS011;44475;53.206;-6.106;2023-03-16T08:28:23;1.15;;;0.75;;
58697;SDS011;44475;53.206;-6.106;2023-03-16T08:30:51;0.88;;;0.88;;
58697;SDS011;44475;53.206;-6.106;2023-03-16T08:33:34;0.98;;;0.80;;
58697;SDS011;44475;53.206;-6.106;2023-03-16T08:36:04;1.50;;;0.70;;
58697;SDS011;44475;53.206;-6.106;2023-03-16T08:38:31;0.80;;;0.80;;
58697;SDS011;44475;53.206;-6.106;2023-03-16T08:41:05;4.22;;;0.98;;
58697;SDS011;44475;53.206;-6.106;2023-03-16T08:43:32;3.33;;;0.90;;
58697;SDS011;44475;53.206;-6.106;2023-03-16T08:46:01;1.25;;;0.88;;
58697;SDS011;44475;53.206;-6.106;2023-03-16T08:48:40;2.28;;;0.80;;
58697;SDS011;44475;53.206;-6.106;2023-03-16T08:51:08;2.83;;;0.85;;
58697;SDS011;44475;53.206;-6.106;2023-03-16T08:53:37;1.00;;;0.75;;
58697;SDS011;44475;53.206;-6.106;2023-03-16T08:56:04;1.08;;;0.73;;
58697;SDS011;44475;53.206;-6.106;2023-03-16T08:58:34;1.05;;;0.80;;
58697;SDS011;44475;53.206;-6.106;2023-03-16T09:01:01;0.70;;;0.70;;
58697;SDS011;44475;53.206;-6.106;2023-03-16T09:03:30;0.68;;;0.68;;
58697;SDS011;44475;53.206;-6.106;2023-03-16T09:06:01;5.32;;;1.00;;
58697;SDS011;44475;53.206;-6.106;2023-03-16T09:08:29;2.20;;;0.73;;
58697;SDS011;44475;53.206;-6.106;2023-03-16T09:11:02;2.45;;;1.08;;
58697;SDS011;44475;53.206;-6.106;2023-03-16T09:13:32;22.00;;;1.95;;
58697;SDS011;44475;53.206;-6.106;2023-03-16T09:15:59;33.70;;;2.25;;
58697;SDS011;44475;53.206;-6.106;2023-03-16T09:18:27;17.17;;;2.00;;
58697;SDS011;44475;53.206;-6.106;2023-03-16T09:20:57;12.98;;;1.77;;
58697;SDS011;44475;53.206;-6.106;2023-03-16T09:23:25;15.90;;;2.53;;
58697;SDS011;44475;53.206;-6.106;2023-03-16T09:25:56;21.08;;;2.00;;
58697;SDS011;44475;53.206;-6.106;2023-03-16T09:28:24;14.77;;;1.80;;
58697;SDS011;44475;53.206;-6.106;2023-03-16T09:30:52;15.75;;;1.98;;
58697;SDS011;44475;53.206;-6.106;2023-03-16T09:33:20;8.95;;;1.75;;
58697;SDS011;44475;53.206;-6.106;2023-03-16T09:35:47;13.68;;;1.92;;
58697;SDS011;44475;53.206;-6.106;2023-03-16T09:38:13;13.20;;;2.00;;
58697;SDS011;44475;53.206;-6.106;2023-03-16T09:40:39;11.77;;;1.92;;
58697;SDS011;44475;53.206;-6.106;2023-03-16T09:43:25;9.18;;;2.10;;
58697;SDS011;44475;53.206;-6.106;2023-03-16T09:46:07;16.52;;;2.20;;
58697;SDS011;44475;53.206;-6.106;2023-03-16T09:48:35;6.32;;;2.15;;
58697;SDS011;44475;53.206;-6.106;2023-03-16T09:51:06;5.00;;;2.13;;
58697;SDS011;44475;53.206;-6.106;2023-03-16T09:53:57;9.40;;;2.28;;
58697;SDS011;44475;53.206;-6.106;2023-03-16T09:56:32;9.98;;;2.10;;
58697;SDS011;44475;53.206;-6.106;2023-03-16T09:59:11;8.75;;;2.30;;
58697;SDS011;44475;53.206;-6.106;2023-03-16T10:04:37;6.50;;;2.17;;
58697;SDS011;44475;53.206;-6.106;2023-03-16T10:09:56;6.80;;;2.40;;
58697;SDS011;44475;53.206;-6.106;2023-03-16T10:12:40;10.73;;;2.50;;
58697;SDS011;44475;53.206;-6.106;2023-03-16T10:15:13;8.77;;;2.30;;
58697;SDS011;44475;53.206;-6.106;2023-03-16T10:17:53;5.32;;;2.45;;
58697;SDS011;44475;53.206;-6.106;2023-03-16T10:20:32;8.45;;;2.80;;
58697;SDS011;44475;53.206;-6.106;2023-03-16T10:22:59;9.02;;;2.40;;
58697;SDS011;44475;53.206;-6.106;2023-03-16T10:25:42;9.18;;;2.53;;
58697;SDS011;44475;53.206;-6.106;2023-03-16T10:28:20;5.82;;;2.50;;
58697;SDS011;44475;53.206;-6.106;2023-03-16T10:30:50;7.90;;;2.55;;
58697;SDS011;44475;53.206;-6.106;2023-03-16T10:33:28;12.75;;;2.70;;
58697;SDS011;44475;53.206;-6.106;2023-03-16T10:41:44;6.03;;;2.35;;
58697;SDS011;44475;53.206;-6.106;2023-03-16T10:44:25;10.00;;;2.50;;
58697;SDS011;44475;53.206;-6.106;2023-03-16T10:46:58;5.63;;;2.35;;
58697;SDS011;44475;53.206;-6.106;2023-03-16T10:52:05;10.02;;;2.50;;
58697;SDS011;44475;53.206;-6.106;2023-03-16T10:54:37;6.85;;;2.65;;
58697;SDS011;44475;53.206;-6.106;2023-03-16T10:59:50;6.53;;;2.42;;
58697;SDS011;44475;53.206;-6.106;2023-03-16T11:02:21;15.57;;;2.75;;
58697;SDS011;44475;53.206;-6.106;2023-03-16T11:04:51;13.80;;;3.03;;
58697;SDS011;44475;53.206;-6.106;2023-03-16T11:07:20;8.13;;;2.45;;
58697;SDS011;44475;53.206;-6.106;2023-03-16T11:09:53;8.40;;;2.38;;
58697;SDS011;44475;53.206;-6.106;2023-03-16T11:12:29;5.28;;;2.40;;
58697;SDS011;44475;53.206;-6.106;2023-03-16T11:15:17;5.78;;;3.00;;
58697;SDS011;44475;53.206;-6.106;2023-03-16T11:17:45;6.40;;;2.50;;
58697;SDS011;44475;53.206;-6.106;2023-03-16T11:20:25;7.93;;;2.60;;
58697;SDS011;44475;53.206;-6.106;2023-03-16T11:22:54;4.65;;;2.20;;
58697;SDS011;44475;53.206;-6.106;2023-03-16T11:25:28;6.68;;;2.60;;
58697;SDS011;44475;53.206;-6.106;2023-03-16T11:30:40;5.00;;;2.03;;
58697;SDS011;44475;53.206;-6.106;2023-03-16T11:33:26;5.25;;;1.90;;
58697;SDS011;44475;53.206;-6.106;2023-03-16T11:41:27;2.65;;;1.80;;
58697;SDS011;44475;53.206;-6.106;2023-03-16T11:44:16;4.57;;;1.83;;
58697;SDS011;44475;53.206;-6.106;2023-03-16T12:03:54;6.38;;;1.60;;
58697;SDS011;44475;53.206;-6.106;2023-03-16T12:09:51;5.55;;;1.67;;
58697;SDS011;44475;53.206;-6.106;2023-03-16T12:18:23;6.63;;;1.52;;
58697;SDS011;44475;53.206;-6.106;2023-03-16T12:21:00;7.80;;;1.67;;
58697;SDS011;44475;53.206;-6.106;2023-03-16T12:23:52;11.27;;;1.73;;
58697;SDS011;44475;53.206;-6.106;2023-03-16T12:26:22;19.58;;;2.00;;
58697;SDS011;44475;53.206;-6.106;2023-03-16T12:28:53;12.45;;;2.20;;
58697;SDS011;44475;53.206;-6.106;2023-03-16T12:31:22;11.25;;;2.17;;
58697;SDS011;44475;53.206;-6.106;2023-03-16T12:45:18;20.20;;;3.72;;
58697;SDS011;44475;53.206;-6.106;2023-03-16T12:48:03;12.88;;;3.28;;
58697;SDS011;44475;53.206;-6.106;2023-03-16T12:50:51;15.65;;;3.50;;
58697;SDS011;44475;53.206;-6.106;2023-03-16T12:53:24;13.82;;;3.28;;
58697;SDS011;44475;53.206;-6.106;2023-03-16T12:56:15;14.75;;;3.45;;
58697;SDS011;44475;53.206;-6.106;2023-03-16T12:58:57;13.23;;;3.10;;
58697;SDS011;44475;53.206;-6.106;2023-03-16T13:01:27;15.45;;;3.40;;
58697;SDS011;44475;53.206;-6.106;2023-03-16T13:04:00;15.70;;;3.65;;
58697;SDS011;44475;53.206;-6.106;2023-03-16T13:06:34;14.63;;;3.03;;
58697;SDS011;44475;53.206;-6.106;2023-03-16T13:09:02;12.48;;;3.00;;
58697;SDS011;44475;53.206;-6.106;2023-03-16T13:11:43;10.00;;;3.05;;
58697;SDS011;44475;53.206;-6.106;2023-03-16T13:14:34;13.98;;;3.55;;
58697;SDS011;44475;53.206;-6.106;2023-03-16T13:20:01;14.90;;;3.10;;
58697;SDS011;44475;53.206;-6.106;2023-03-16T13:22:50;13.00;;;2.80;;
58697;SDS011;44475;53.206;-6.106;2023-03-16T13:28:10;7.30;;;2.90;;
58697;SDS011;44475;53.206;-6.106;2023-03-16T13:30:45;11.40;;;2.78;;
58697;SDS011;44475;53.206;-6.106;2023-03-16T13:36:12;9.73;;;2.20;;
58697;SDS011;44475;53.206;-6.106;2023-03-16T13:38:39;7.38;;;2.45;;
58697;SDS011;44475;53.206;-6.106;2023-03-16T13:41:10;7.63;;;2.78;;
58697;SDS011;44475;53.206;-6.106;2023-03-16T13:43:41;13.60;;;2.47;;
58697;SDS011;44475;53.206;-6.106;2023-03-16T13:46:14;8.82;;;2.10;;
58697;SDS011;44475;53.206;-6.106;2023-03-16T13:48:41;13.23;;;2.75;;
58697;SDS011;44475;53.206;-6.106;2023-03-16T13:51:18;9.40;;;2.60;;
58697;SDS011;44475;53.206;-6.106;2023-03-16T13:53:47;11.32;;;2.10;;
58697;SDS011;44475;53.206;-6.106;2023-03-16T13:56:16;10.35;;;2.40;;
58697;SDS011;44475;53.206;-6.106;2023-03-16T13:58:49;6.47;;;1.88;;
58697;SDS011;44475;53.206;-6.106;2023-03-16T14:03:51;8.60;;;2.22;;
58697;SDS011;44475;53.206;-6.106;2023-03-16T14:06:24;6.43;;;1.95;;
58697;SDS011;44475;53.206;-6.106;2023-03-16T14:08:54;7.32;;;2.13;;
58697;SDS011;44475;53.206;-6.106;2023-03-16T14:11:28;7.50;;;2.47;;
58697;SDS011;44475;53.206;-6.106;2023-03-16T14:13:56;7.15;;;1.70;;
58697;SDS011;44475;53.206;-6.106;2023-03-16T14:16:25;5.60;;;1.92;;
58697;SDS011;44475;53.206;-6.106;2023-03-16T14:19:00;3.97;;;1.50;;
58697;SDS011;44475;53.206;-6.106;2023-03-16T14:21:31;4.97;;;1.90;;
58697;SDS011;44475;53.206;-6.106;2023-03-16T14:23:59;5.95;;;1.80;;
58697;SDS011;44475;53.206;-6.106;2023-03-16T14:26:46;5.82;;;1.80;;
58697;SDS011;44475;53.206;-6.106;2023-03-16T14:29:16;5.70;;;1.55;;
58697;SDS011;44475;53.206;-6.106;2023-03-16T14:31:54;6.65;;;1.70;;
58697;SDS011;44475;53.206;-6.106;2023-03-16T14:34:35;9.07;;;1.80;;
58697;SDS011;44475;53.206;-6.106;2023-03-16T14:37:07;5.82;;;2.10;;
58697;SDS011;44475;53.206;-6.106;2023-03-16T14:39:35;8.20;;;1.60;;
58697;SDS011;44475;53.206;-6.106;2023-03-16T14:42:04;8.70;;;1.70;;
58697;SDS011;44475;53.206;-6.106;2023-03-16T14:44:59;4.43;;;1.48;;
58697;SDS011;44475;53.206;-6.106;2023-03-16T14:47:35;5.38;;;1.80;;
58697;SDS011;44475;53.206;-6.106;2023-03-16T14:50:06;11.35;;;1.60;;
58697;SDS011;44475;53.206;-6.106;2023-03-16T14:52:40;4.15;;;1.40;;
58697;SDS011;44475;53.206;-6.106;2023-03-16T14:55:10;4.07;;;1.63;;
58697;SDS011;44475;53.206;-6.106;2023-03-16T14:57:41;4.68;;;1.65;;
58697;SDS011;44475;53.206;-6.106;2023-03-16T15:00:13;4.65;;;1.38;;
58697;SDS011;44475;53.206;-6.106;2023-03-16T15:02:44;7.97;;;1.80;;
58697;SDS011;44475;53.206;-6.106;2023-03-16T15:05:41;2.17;;;1.17;;
58697;SDS011;44475;53.206;-6.106;2023-03-16T15:08:15;4.70;;;1.30;;
58697;SDS011;44475;53.206;-6.106;2023-03-16T15:10:47;5.07;;;1.60;;
58697;SDS011;44475;53.206;-6.106;2023-03-16T15:13:18;4.05;;;1.38;;
58697;SDS011;44475;53.206;-6.106;2023-03-16T15:16:17;4.47;;;1.35;;
58697;SDS011;44475;53.206;-6.106;2023-03-16T15:18:46;5.75;;;1.48;;
58697;SDS011;44475;53.206;-6.106;2023-03-16T15:21:19;4.38;;;1.30;;
58697;SDS011;44475;53.206;-6.106;2023-03-16T15:23:47;4.85;;;1.60;;
58697;SDS011;44475;53.206;-6.106;2023-03-16T15:26:15;4.70;;;1.20;;
58697;SDS011;44475;53.206;-6.106;2023-03-16T15:28:46;7.97;;;1.27;;
58697;SDS011;44475;53.206;-6.106;2023-03-16T15:31:13;6.78;;;1.25;;
58697;SDS011;44475;53.206;-6.106;2023-03-16T15:33:39;4.30;;;1.30;;
58697;SDS011;44475;53.206;-6.106;2023-03-16T15:36:19;2.15;;;1.10;;
58697;SDS011;44475;53.206;-6.106;2023-03-16T15:38:47;2.40;;;1.10;;
58697;SDS011;44475;53.206;-6.106;2023-03-16T15:41:17;3.20;;;1.42;;
58697;SDS011;44475;53.206;-6.106;2023-03-16T15:43:44;5.25;;;1.77;;
58697;SDS011;44475;53.206;-6.106;2023-03-16T15:46:11;2.63;;;1.15;;
58697;SDS011;44475;53.206;-6.106;2023-03-16T15:48:39;2.25;;;1.17;;
58697;SDS011;44475;53.206;-6.106;2023-03-16T15:51:07;2.88;;;1.20;;
58697;SDS011;44475;53.206;-6.106;2023-03-16T15:54:00;3.08;;;1.27;;
58697;SDS011;44475;53.206;-6.106;2023-03-16T15:56:29;2.05;;;1.20;;
58697;SDS011;44475;53.206;-6.106;2023-03-16T15:59:01;2.08;;;1.20;;
58697;SDS011;44475;53.206;-6.106;2023-03-16T16:01:39;2.85;;;1.13;;
58697;SDS011;44475;53.206;-6.106;2023-03-16T16:04:11;3.20;;;1.13;;
58697;SDS011;44475;53.206;-6.106;2023-03-16T16:06:40;2.10;;;1.20;;
58697;SDS011;44475;53.206;-6.106;2023-03-16T16:09:07;4.18;;;1.30;;
58697;SDS011;44475;53.206;-6.106;2023-03-16T16:11:34;2.58;;;1.30;;
58697;SDS011;44475;53.206;-6.106;2023-03-16T16:14:01;2.45;;;1.30;;
58697;SDS011;44475;53.206;-6.106;2023-03-16T16:16:29;1.75;;;1.10;;
58697;SDS011;44475;53.206;-6.106;2023-03-16T16:18:57;2.05;;;1.30;;
58697;SDS011;44475;53.206;-6.106;2023-03-16T16:21:26;1.70;;;1.02;;
58697;SDS011;44475;53.206;-6.106;2023-03-16T16:23:55;3.50;;;1.35;;
58697;SDS011;44475;53.206;-6.106;2023-03-16T16:28:57;4.28;;;1.00;;
58697;SDS011;44475;53.206;-6.106;2023-03-16T16:31:27;4.75;;;1.30;;